Time,TemperatureF,DewpointF,PressureIn,WindDirection,WindDirectionDegrees,WindSpeedMPH,WindSpeedGustMPH,Humidity,HourlyPrecipIn,Conditions,Clouds,dailyrainin,SoftwareType,DateUTC
2013-02-15 00:02:00,45.0,-99.9,30.04,ENE,61,3.0,5.0,-999,-99.99,,,-99.99,,2013-02-15 05:02:00,
2013-02-15 00:12:00,45.0,-99.9,30.03,NE,44,5.0,6.0,-999,-99.99,,,-99.99,,2013-02-15 05:12:00,
2013-02-15 00:22:00,46.0,-99.9,30.04,NNE,27,6.0,9.0,-999,-99.99,,,-99.99,,2013-02-15 05:22:00,
2013-02-15 00:33:00,47.0,-99.9,30.04,North,3,10.0,11.0,-999,-99.99,,,-99.99,,2013-02-15 05:33:00,
2013-02-15 00:42:00,46.0,-99.9,30.04,North,5,9.0,11.0,-999,-99.99,,,-99.99,,2013-02-15 05:42:00,
2013-02-15 00:52:00,46.0,-99.9,30.04,North,356,9.0,11.0,-999,-99.99,,,-99.99,,2013-02-15 05:52:00,
2013-02-15 01:02:00,46.0,-99.9,30.04,NNE,19,10.0,11.0,-999,-99.99,,,-99.99,,2013-02-15 06:02:00,
2013-02-15 01:11:00,46.0,-99.9,30.04,North,5,9.0,11.0,-999,-99.99,,,-99.99,,2013-02-15 06:11:00,
2013-02-15 01:22:00,47.0,-99.9,30.05,NNW,347,7.0,9.0,-999,-99.99,,,-99.99,,2013-02-15 06:22:00,
2013-02-15 01:32:00,47.0,-99.9,30.06,NNW,332,9.0,10.0,-999,-99.99,,,-99.99,,2013-02-15 06:32:00,
2013-02-15 01:42:00,47.0,-99.9,30.06,NNW,328,10.0,11.0,-999,-99.99,,,-99.99,,2013-02-15 06:42:00,
2013-02-15 01:52:00,47.0,-99.9,30.05,NNW,333,11.0,13.0,-999,-99.99,,,-99.99,,2013-02-15 06:52:00,
2013-02-15 02:01:00,47.0,-99.9,30.05,NNW,331,11.0,13.0,-999,-99.99,,,-99.99,,2013-02-15 07:01:00,
2013-02-15 02:11:00,47.0,-99.9,30.04,NNW,332,12.0,13.0,-999,-99.99,,,-99.99,,2013-02-15 07:11:00,
2013-02-15 02:21:00,47.0,-99.9,30.04,NNW,331,13.0,15.0,-999,-99.99,,,-99.99,,2013-02-15 07:21:00,
2013-02-15 02:32:00,47.0,-99.9,30.04,NNW,328,16.0,17.0,-999,-99.99,,,-99.99,,2013-02-15 07:32:00,
2013-02-15 02:42:00,47.0,-99.9,30.04,NW,326,15.0,17.0,-999,-99.99,,,-99.99,,2013-02-15 07:42:00,
2013-02-15 02:52:00,47.0,-99.9,30.04,NNW,332,16.0,18.0,-999,-99.99,,,-99.99,,2013-02-15 07:52:00,
2013-02-15 03:01:00,47.0,-99.9,30.04,NNW,329,16.0,17.0,-999,-99.99,,,-99.99,,2013-02-15 08:01:00,
2013-02-15 03:11:00,47.0,-99.9,30.04,NW,326,17.0,18.0,-999,-99.99,,,-99.99,,2013-02-15 08:11:00,
2013-02-15 03:22:00,47.0,-99.9,30.03,NNW,330,17.0,19.0,-999,-99.99,,,-99.99,,2013-02-15 08:22:00,
2013-02-15 03:32:00,47.0,-99.9,30.02,NNW,328,16.0,18.0,-999,-99.99,,,-99.99,,2013-02-15 08:32:00,
2013-02-15 03:42:00,47.0,-99.9,30.03,NW,326,15.0,17.0,-999,-99.99,,,-99.99,,2013-02-15 08:42:00,
2013-02-15 03:53:00,47.0,-99.9,30.03,NW,323,15.0,17.0,-999,-99.99,,,-99.99,,2013-02-15 08:53:00,
2013-02-15 04:02:00,47.0,-99.9,30.04,NW,322,15.0,16.0,-999,-99.99,,,-99.99,,2013-02-15 09:02:00,
2013-02-15 04:12:00,47.0,-99.9,30.04,NW,325,13.0,16.0,-999,-99.99,,,-99.99,,2013-02-15 09:12:00,
2013-02-15 04:22:00,47.0,-99.9,30.04,NW,318,15.0,16.0,-999,-99.99,,,-99.99,,2013-02-15 09:22:00,
2013-02-15 04:32:00,47.0,-99.9,30.04,NW,323,14.0,16.0,-999,-99.99,,,-99.99,,2013-02-15 09:32:00,
2013-02-15 04:42:00,47.0,-99.9,30.05,NW,321,15.0,16.0,-999,-99.99,,,-99.99,,2013-02-15 09:42:00,
2013-02-15 04:52:00,47.0,-99.9,30.06,NW,320,13.0,15.0,-999,-99.99,,,-99.99,,2013-02-15 09:52:00,
2013-02-15 05:02:00,47.0,-99.9,30.06,NW,325,12.0,14.0,-999,-99.99,,,-99.99,,2013-02-15 10:02:00,
2013-02-15 05:11:00,47.0,-99.9,30.05,NW,323,13.0,14.0,-999,-99.99,,,-99.99,,2013-02-15 10:11:00,
2013-02-15 05:22:00,47.0,-99.9,30.05,NNW,330,13.0,15.0,-999,-99.99,,,-99.99,,2013-02-15 10:22:00,
2013-02-15 05:32:00,47.0,-99.9,30.04,NNW,330,14.0,16.0,-999,-99.99,,,-99.99,,2013-02-15 10:32:00,
2013-02-15 05:42:00,47.0,-99.9,30.05,NNW,331,13.0,17.0,-999,-99.99,,,-99.99,,2013-02-15 10:42:00,
2013-02-15 05:52:00,47.0,-99.9,30.05,NNW,335,13.0,14.0,-999,-99.99,,,-99.99,,2013-02-15 10:52:00,
2013-02-15 06:01:00,47.0,-99.9,30.05,NNW,338,12.0,14.0,-999,-99.99,,,-99.99,,2013-02-15 11:01:00,
2013-02-15 06:11:00,47.0,-99.9,30.05,NNW,337,13.0,15.0,-999,-99.99,,,-99.99,,2013-02-15 11:11:00,
2013-02-15 06:23:00,47.0,-99.9,30.05,NNW,340,12.0,13.0,-999,-99.99,,,-99.99,,2013-02-15 11:23:00,
2013-02-15 06:32:00,47.0,-99.9,30.05,North,356,11.0,13.0,-999,-99.99,,,-99.99,,2013-02-15 11:32:00,
2013-02-15 06:43:00,47.0,-99.9,30.06,North,357,11.0,13.0,-999,-99.99,,,-99.99,,2013-02-15 11:43:00,
2013-02-15 06:52:00,47.0,-99.9,30.06,North,360,11.0,13.0,-999,-99.99,,,-99.99,,2013-02-15 11:52:00,
2013-02-15 07:02:00,47.0,-99.9,30.06,NNW,345,11.0,13.0,-999,-99.99,,,-99.99,,2013-02-15 12:02:00,
2013-02-15 07:11:00,47.0,-99.9,30.06,North,351,11.0,13.0,-999,-99.99,,,-99.99,,2013-02-15 12:11:00,
2013-02-15 07:22:00,47.0,-99.9,30.06,NNW,339,12.0,13.0,-999,-99.99,,,-99.99,,2013-02-15 12:22:00,
2013-02-15 07:32:00,47.0,-99.9,30.06,North,349,13.0,14.0,-999,-99.99,,,-99.99,,2013-02-15 12:32:00,
2013-02-15 07:42:00,47.0,-99.9,30.06,North,1,11.0,14.0,-999,-99.99,,,-99.99,,2013-02-15 12:42:00,
2013-02-15 07:53:00,47.0,-99.9,30.06,NNW,346,12.0,14.0,-999,-99.99,,,-99.99,,2013-02-15 12:53:00,
2013-02-15 08:02:00,47.0,-99.9,30.07,North,7,12.0,14.0,-999,-99.99,,,-99.99,,2013-02-15 13:02:00,
2013-02-15 08:11:00,47.0,-99.9,30.07,NNW,346,11.0,14.0,-999,-99.99,,,-99.99,,2013-02-15 13:11:00,
2013-02-15 08:22:00,47.0,-99.9,30.07,North,349,11.0,13.0,-999,-99.99,,,-99.99,,2013-02-15 13:22:00,
2013-02-15 08:32:00,47.0,-99.9,30.07,NNW,348,12.0,13.0,-999,-99.99,,,-99.99,,2013-02-15 13:32:00,
2013-02-15 08:42:00,47.0,-99.9,30.07,North,357,12.0,13.0,-999,-99.99,,,-99.99,,2013-02-15 13:42:00,
2013-02-15 08:52:00,47.0,-99.9,30.07,NNE,14,13.0,14.0,-999,-99.99,,,-99.99,,2013-02-15 13:52:00,
2013-02-15 09:01:00,47.0,-99.9,30.07,North,1,13.0,14.0,-999,-99.99,,,-99.99,,2013-02-15 14:01:00,
2013-02-15 09:12:00,47.0,-99.9,30.08,NNE,19,11.0,14.0,-999,-99.99,,,-99.99,,2013-02-15 14:12:00,
2013-02-15 09:22:00,47.0,-99.9,30.09,NNE,14,9.0,11.0,-999,-99.99,,,-99.99,,2013-02-15 14:22:00,
2013-02-15 09:32:00,47.0,-99.9,30.09,NNE,22,10.0,12.0,-999,-99.99,,,-99.99,,2013-02-15 14:32:00,
2013-02-15 09:42:00,47.0,-99.9,30.09,North,11,10.0,11.0,-999,-99.99,,,-99.99,,2013-02-15 14:42:00,
2013-02-15 09:52:00,47.0,-99.9,30.09,North,359,9.0,11.0,-999,-99.99,,,-99.99,,2013-02-15 14:52:00,
2013-02-15 10:02:00,48.0,-99.9,30.09,North,2,9.0,11.0,-999,-99.99,,,-99.99,,2013-02-15 15:02:00,
2013-02-15 10:11:00,47.0,-99.9,30.08,North,358,11.0,11.0,-999,-99.99,,,-99.99,,2013-02-15 15:11:00,
2013-02-15 10:22:00,48.0,-99.9,30.08,NNE,20,10.0,12.0,-999,-99.99,,,-99.99,,2013-02-15 15:22:00,
2013-02-15 10:32:00,48.0,-99.9,30.08,NNE,24,11.0,12.0,-999,-99.99,,,-99.99,,2013-02-15 15:32:00,
2013-02-15 10:42:00,48.0,-99.9,30.07,NNE,17,10.0,12.0,-999,-99.99,,,-99.99,,2013-02-15 15:42:00,
2013-02-15 10:52:00,48.0,-99.9,30.07,NNE,12,11.0,12.0,-999,-99.99,,,-99.99,,2013-02-15 15:52:00,
2013-02-15 11:02:00,48.0,-99.9,30.07,NNW,345,11.0,13.0,-999,-99.99,,,-99.99,,2013-02-15 16:02:00,
2013-02-15 11:12:00,48.0,-99.9,30.07,NNE,18,11.0,13.0,-999,-99.99,,,-99.99,,2013-02-15 16:12:00,
2013-02-15 11:22:00,48.0,-99.9,30.07,North,358,11.0,12.0,-999,-99.99,,,-99.99,,2013-02-15 16:22:00,
2013-02-15 11:32:00,48.0,-99.9,30.07,North,-999,9.0,10.0,-999,-99.99,,,-99.99,,2013-02-15 16:32:00,
2013-02-15 11:43:00,48.0,-99.9,30.07,North,11,9.0,10.0,-999,-99.99,,,-99.99,,2013-02-15 16:43:00,
2013-02-15 11:52:00,48.0,-99.9,30.07,NNE,28,8.0,10.0,-999,-99.99,,,-99.99,,2013-02-15 16:52:00,
2013-02-15 12:01:00,48.0,-99.9,30.06,North,359,9.0,10.0,-999,-99.99,,,-99.99,,2013-02-15 17:01:00,
2013-02-15 12:11:00,48.0,-99.9,30.06,North,10,9.0,10.0,-999,-99.99,,,-99.99,,2013-02-15 17:11:00,
2013-02-15 12:21:00,49.0,-99.9,30.06,NNE,19,9.0,11.0,-999,-99.99,,,-99.99,,2013-02-15 17:21:00,
2013-02-15 12:32:00,49.0,-99.9,30.05,NNE,14,9.0,10.0,-999,-99.99,,,-99.99,,2013-02-15 17:32:00,
2013-02-15 12:42:00,49.0,-99.9,30.05,NNE,20,9.0,10.0,-999,-99.99,,,-99.99,,2013-02-15 17:42:00,
2013-02-15 12:52:00,49.0,-99.9,30.05,North,350,9.0,10.0,-999,-99.99,,,-99.99,,2013-02-15 17:52:00,
2013-02-15 13:02:00,49.0,-99.9,30.04,NNE,22,9.0,11.0,-999,-99.99,,,-99.99,,2013-02-15 18:02:00,
2013-02-15 13:12:00,49.0,-99.9,30.04,NNE,26,9.0,11.0,-999,-99.99,,,-99.99,,2013-02-15 18:12:00,
2013-02-15 13:22:00,49.0,-99.9,30.03,NNE,20,10.0,11.0,-999,-99.99,,,-99.99,,2013-02-15 18:22:00,
2013-02-15 13:32:00,49.0,-99.9,30.03,NNE,29,8.0,11.0,-999,-99.99,,,-99.99,,2013-02-15 18:32:00,
2013-02-15 13:42:00,49.0,-99.9,30.03,NNE,24,9.0,10.0,-999,-99.99,,,-99.99,,2013-02-15 18:42:00,
2013-02-15 13:53:00,49.0,-99.9,30.03,NNE,25,9.0,11.0,-999,-99.99,,,-99.99,,2013-02-15 18:53:00,
2013-02-15 14:02:00,49.0,-99.9,30.02,NNE,26,9.0,11.0,-999,-99.99,,,-99.99,,2013-02-15 19:02:00,
2013-02-15 14:11:00,49.0,-99.9,30.02,NNE,25,9.0,10.0,-999,-99.99,,,-99.99,,2013-02-15 19:11:00,
2013-02-15 14:22:00,50.0,-99.9,30.02,NNE,26,9.0,10.0,-999,-99.99,,,-99.99,,2013-02-15 19:22:00,
2013-02-15 14:32:00,50.0,-99.9,30.01,NNE,23,9.0,10.0,-999,-99.99,,,-99.99,,2013-02-15 19:32:00,
2013-02-15 14:42:00,50.0,-99.9,30.01,NNE,28,9.0,11.0,-999,-99.99,,,-99.99,,2013-02-15 19:42:00,
2013-02-15 14:52:00,50.0,-99.9,30.01,NNE,27,9.0,10.0,-999,-99.99,,,-99.99,,2013-02-15 19:52:00,
2013-02-15 15:02:00,50.0,-99.9,30.01,NNE,25,8.0,9.0,-999,-99.99,,,-99.99,,2013-02-15 20:02:00,
2013-02-15 15:11:00,50.0,-99.9,30.01,NNE,28,8.0,9.0,-999,-99.99,,,-99.99,,2013-02-15 20:11:00,
2013-02-15 15:22:00,51.0,-99.9,30.00,NNE,26,8.0,9.0,-999,-99.99,,,-99.99,,2013-02-15 20:22:00,
2013-02-15 15:32:00,51.0,-99.9,29.99,NNE,33,7.0,9.0,-999,-99.99,,,-99.99,,2013-02-15 20:32:00,
2013-02-15 15:42:00,52.0,-99.9,29.99,NE,35,6.0,9.0,-999,-99.99,,,-99.99,,2013-02-15 20:42:00,
2013-02-15 15:53:00,52.0,-99.9,29.99,NNE,27,7.0,9.0,-999,-99.99,,,-99.99,,2013-02-15 20:53:00,
2013-02-15 16:02:00,52.0,-99.9,29.98,NE,38,5.0,8.0,-999,-99.99,,,-99.99,,2013-02-15 21:02:00,
2013-02-15 16:11:00,53.0,-99.9,29.98,NE,34,5.0,10.0,-999,-99.99,,,-99.99,,2013-02-15 21:11:00,
2013-02-15 16:22:00,53.0,-99.9,29.98,NE,49,4.0,7.0,-999,-99.99,,,-99.99,,2013-02-15 21:22:00,
2013-02-15 16:32:00,53.0,-99.9,29.98,NE,35,4.0,6.0,-999,-99.99,,,-99.99,,2013-02-15 21:32:00,
2013-02-15 16:42:00,53.0,-99.9,29.98,ENE,71,4.0,5.0,-999,-99.99,,,-99.99,,2013-02-15 21:42:00,
2013-02-15 16:52:00,53.0,-99.9,29.98,NE,38,4.0,6.0,-999,-99.99,,,-99.99,,2013-02-15 21:52:00,
2013-02-15 17:02:00,53.0,-99.9,29.98,NE,40,4.0,6.0,-999,-99.99,,,-99.99,,2013-02-15 22:02:00,
2013-02-15 17:12:00,52.0,-99.9,29.98,NE,55,4.0,6.0,-999,-99.99,,,-99.99,,2013-02-15 22:12:00,
2013-02-15 17:22:00,52.0,-99.9,29.98,NE,55,3.0,6.0,-999,-99.99,,,-99.99,,2013-02-15 22:22:00,
2013-02-15 17:32:00,53.0,-99.9,29.97,ENE,57,3.0,5.0,-999,-99.99,,,-99.99,,2013-02-15 22:32:00,
2013-02-15 17:42:00,52.0,-99.9,29.97,NE,41,3.0,5.0,-999,-99.99,,,-99.99,,2013-02-15 22:42:00,
2013-02-15 17:52:00,52.0,-99.9,29.97,NE,54,3.0,5.0,-999,-99.99,,,-99.99,,2013-02-15 22:52:00,
2013-02-15 18:02:00,52.0,-99.9,29.97,ENE,72,2.0,3.0,-999,-99.99,,,-99.99,,2013-02-15 23:02:00,
2013-02-15 18:11:00,52.0,-99.9,29.97,ENE,72,2.0,3.0,-999,-99.99,,,-99.99,,2013-02-15 23:11:00,
2013-02-15 18:21:00,51.0,-99.9,29.97,ENE,75,2.0,3.0,-999,-99.99,,,-99.99,,2013-02-15 23:21:00,
2013-02-15 18:32:00,51.0,-99.9,29.97,NE,51,3.0,3.0,-999,-99.99,,,-99.99,,2013-02-15 23:32:00,
2013-02-15 18:42:00,50.0,-99.9,29.97,East,81,2.0,3.0,-999,-99.99,,,-99.99,,2013-02-15 23:42:00,
2013-02-15 18:52:00,49.0,-99.9,29.97,East,81,2.0,2.0,-999,-99.99,,,-99.99,,2013-02-15 23:52:00,
2013-02-15 19:02:00,49.0,-99.9,29.96,ENE,72,2.0,2.0,-999,-99.99,,,-99.99,,2013-02-16 00:02:00,
2013-02-15 19:12:00,49.0,-99.9,29.96,ENE,62,3.0,3.0,-999,-99.99,,,-99.99,,2013-02-16 00:12:00,
2013-02-15 19:22:00,49.0,-99.9,29.96,ENE,69,3.0,4.0,-999,-99.99,,,-99.99,,2013-02-16 00:22:00,
2013-02-15 19:32:00,49.0,-99.9,29.97,ENE,66,4.0,4.0,-999,-99.99,,,-99.99,,2013-02-16 00:32:00,
2013-02-15 19:42:00,48.0,-99.9,29.96,ENE,75,4.0,4.0,-999,-99.99,,,-99.99,,2013-02-16 00:42:00,
2013-02-15 19:52:00,48.0,-99.9,29.96,ENE,71,4.0,4.0,-999,-99.99,,,-99.99,,2013-02-16 00:52:00,
2013-02-15 20:02:00,48.0,-99.9,29.97,ENE,64,3.0,3.0,-999,-99.99,,,-99.99,,2013-02-16 01:02:00,
2013-02-15 20:11:00,48.0,-99.9,29.97,ENE,76,3.0,3.0,-999,-99.99,,,-99.99,,2013-02-16 01:11:00,
2013-02-15 20:21:00,49.0,-99.9,29.96,NE,50,3.0,4.0,-999,-99.99,,,-99.99,,2013-02-16 01:21:00,
2013-02-15 20:32:00,49.0,-99.9,29.96,NE,51,3.0,4.0,-999,-99.99,,,-99.99,,2013-02-16 01:32:00,
2013-02-15 20:42:00,49.0,-99.9,29.96,ENE,61,2.0,4.0,-999,-99.99,,,-99.99,,2013-02-16 01:42:00,
2013-02-15 20:52:00,49.0,-99.9,29.96,NE,43,3.0,4.0,-999,-99.99,,,-99.99,,2013-02-16 01:52:00,
2013-02-15 21:01:00,49.0,-99.9,29.97,ENE,62,3.0,3.0,-999,-99.99,,,-99.99,,2013-02-16 02:01:00,
2013-02-15 21:11:00,48.0,-99.9,29.97,ENE,60,3.0,4.0,-999,-99.99,,,-99.99,,2013-02-16 02:11:00,
2013-02-15 21:22:00,49.0,-99.9,29.97,NE,51,2.0,3.0,-999,-99.99,,,-99.99,,2013-02-16 02:22:00,
2013-02-15 21:32:00,48.0,-99.9,29.97,NE,54,2.0,2.0,-999,-99.99,,,-99.99,,2013-02-16 02:32:00,
2013-02-15 21:42:00,48.0,-99.9,29.97,NNE,31,2.0,3.0,-999,-99.99,,,-99.99,,2013-02-16 02:42:00,
2013-02-15 21:52:00,49.0,-99.9,29.97,NNE,21,1.0,1.0,-999,-99.99,,,-99.99,,2013-02-16 02:52:00,
2013-02-15 22:02:00,49.0,-99.9,29.97,NNE,23,2.0,3.0,-999,-99.99,,,-99.99,,2013-02-16 03:02:00,
2013-02-15 22:11:00,49.0,-99.9,29.97,NNE,29,2.0,3.0,-999,-99.99,,,-99.99,,2013-02-16 03:11:00,
2013-02-15 22:22:00,48.0,-99.9,29.97,ENE,74,2.0,2.0,-999,-99.99,,,-99.99,,2013-02-16 03:22:00,
2013-02-15 22:32:00,49.0,-99.9,29.96,NE,41,3.0,4.0,-999,-99.99,,,-99.99,,2013-02-16 03:32:00,
2013-02-15 22:42:00,49.0,-99.9,29.96,NE,35,3.0,4.0,-999,-99.99,,,-99.99,,2013-02-16 03:42:00,
2013-02-15 22:52:00,49.0,-99.9,29.96,North,7,2.0,3.0,-999,-99.99,,,-99.99,,2013-02-16 03:52:00,
2013-02-15 23:01:00,49.0,-99.9,29.96,North,9,2.0,3.0,-999,-99.99,,,-99.99,,2013-02-16 04:01:00,
2013-02-15 23:11:00,49.0,-99.9,29.96,NNW,343,4.0,4.0,-999,-99.99,,,-99.99,,2013-02-16 04:11:00,
2013-02-15 23:21:00,50.0,-99.9,29.96,NNW,333,5.0,5.0,-999,-99.99,,,-99.99,,2013-02-16 04:21:00,
2013-02-15 23:32:00,50.0,-99.9,29.96,NNW,338,4.0,4.0,-999,-99.99,,,-99.99,,2013-02-16 04:32:00,
2013-02-15 23:42:00,50.0,-99.9,29.96,NW,325,4.0,4.0,-999,-99.99,,,-99.99,,2013-02-16 04:42:00,
2013-02-15 23:52:00,50.0,-99.9,29.95,NW,318,5.0,6.0,-999,-99.99,,,-99.99,,2013-02-16 04:52:00,